Brive-Souillac

LFSL · Nouvelle-Aquitaine, Francja

2 października 2022

Czas Kod Pogoda Temp. Widoczność Sufit Wiatr METAR/SPECI
10:30
V
18 °C 10 km+ 3.500 ft Var Var 3 kt METAR LFBE 020830Z AUTO VRB03KT 9999 OVC035 18/16 Q1027 NOSIG
10:00
V
17 °C 10 km+ 3.600 ft 180° 180° 3 kt METAR LFBE 020800Z AUTO 18003KT 9999 FEW008 OVC036 17/16 Q1027 TEMPO BKN005
09:30
V
17 °C 10 km+ 3.300 ft 190° 190° 3 kt METAR LFBE 020730Z AUTO 19003KT 150V230 9999 OVC033 17/16 Q1027 TEMPO BKN005
09:00
V
17 °C 10 km+ 3.500 ft 180° 180° 4 kt METAR LFBE 020700Z AUTO 18004KT 150V210 9999 FEW008 OVC035 17/16 Q1027 TEMPO BKN005
08:30
V
17 °C 10 km+ 3.400 ft Var Var 2 kt METAR LFBE 020630Z AUTO VRB02KT 9999 SCT007 OVC034 17/16 Q1026 TEMPO BKN005
08:00
V
17 °C 10 km+ 3.500 ft Var 000° 0 kt METAR LFBE 020600Z AUTO 00000KT 9999 OVC035 17/16 Q1026 TEMPO 1500 MIFG BKN005
07:30
V
17 °C 10 km+ 3.400 ft 170° 170° 3 kt METAR LFBE 020530Z AUTO 17003KT 140V210 9999 FEW023 SCT029 OVC034 17/16 Q1026 TEMPO 1500 MIFG BKN005
07:00
M
17 °C 10 km+ 2.700 ft 170° 170° 4 kt METAR LFBE 020500Z AUTO 17004KT 140V200 9999 FEW017 OVC027 17/16 Q1026 TEMPO 3000 BR BKN005
06:30
M
17 °C 10 km+ 2.800 ft Var Var 3 kt METAR LFBE 020430Z AUTO VRB03KT 9999 OVC028 17/16 Q1026 TEMPO 3000 BR BKN005
06:00
V
17 °C 10 km+ 3.000 ft Var Var 2 kt METAR LFBE 020400Z AUTO VRB02KT 9999 OVC030 17/16 Q1026 TEMPO 0500 FG BKN005
05:30
V
17 °C 10 km+ 3.100 ft 190° 190° 3 kt METAR LFBE 020330Z AUTO 19003KT 160V220 9999 OVC031 17/16 Q1026 TEMPO 0500 FG BKN005
05:00
V
17 °C 10 km+ 3.000 ft Var Var 3 kt METAR LFBE 020300Z AUTO VRB03KT 9999 OVC030 17/16 Q1026 TEMPO 0500 FG BKN005
04:30
M
17 °C 10 km+ 2.900 ft 200° 200° 4 kt METAR LFBE 020230Z AUTO 20004KT 9999 SCT018 OVC029 17/16 Q1026 TEMPO 0500 FG BKN005
04:00
M
17 °C 10 km+ 1.700 ft 220° 220° 6 kt METAR LFBE 020200Z AUTO 22006KT 9999 BKN017 OVC031 17/16 Q1026 TEMPO 0500 FG BKN005
03:30
I
17 °C 10 km+ 900 ft 220° 220° 4 kt METAR LFBE 020130Z AUTO 22004KT 9999 BKN009 BKN016 OVC023 17/16 Q1026 TEMPO 0500 FG
03:00
I
16 °C 10 km+ 900 ft 220° 220° 4 kt METAR LFBE 020100Z AUTO 22004KT 9999 OVC009 16/16 Q1026 TEMPO 0500 FG
02:30
M
16 °C 10 km+ 2.400 ft 220° 220° 3 kt METAR LFBE 020030Z AUTO 22003KT 9999 FEW012 OVC024 16/15 Q1026 TEMPO 0500 FG BKN005
02:00
M
17 °C 10 km+ 2.700 ft 190° 190° 2 kt METAR LFBE 020000Z AUTO 19002KT 9999 BKN027 17/16 Q1026 TEMPO 3000 BR BKN005
01:30
M
18 °C 10 km+ 2.400 ft Var Var 2 kt METAR LFBE 012330Z AUTO VRB02KT 9999 OVC024 18/16 Q1026 TEMPO 3000 BR BKN005
01:00
M
18 °C 10 km+ 2.200 ft 240° 240° 5 kt METAR LFBE 012300Z AUTO 24005KT 9999 OVC022 18/16 Q1026
00:30
M
18 °C 10 km+ 2.100 ft 240° 240° 5 kt METAR LFBE 012230Z AUTO 24005KT 9999 SCT015 OVC021 18/16 Q1026
00:00
M
18 °C 10 km+ 1.500 ft 240° 240° 7 kt METAR LFBE 012200Z AUTO 24007KT 210V270 9999 OVC015 18/17 Q1026

1 października 2022

Czas Kod Pogoda Temp. Widoczność Sufit Wiatr METAR/SPECI
23:30
M
18 °C 10 km+ 1.100 ft 220° 220° 7 kt METAR LFBE 012130Z AUTO 22007KT 190V250 9999 BKN011 OVC016 18/17 Q1026
23:00
M
18 °C 10 km+ 1.200 ft 230° 230° 5 kt METAR LFBE 012100Z AUTO 23005KT 190V260 9999 OVC012 18/17 Q1026
22:30
M
18 °C 10 km+ 1.400 ft 210° 210° 5 kt METAR LFBE 012030Z AUTO 21005KT 9999 OVC014 18/17 Q1026
22:00
M
18 °C 10 km+ 1.200 ft 250° 250° 4 kt METAR LFBE 012000Z AUTO 25004KT 200V270 9999 BKN012 BKN017 OVC024 18/17 Q1025 TEMPO 4000 RA
21:30
M
18 °C 10 km+ 2.100 ft 240° 240° 4 kt METAR LFBE 011930Z AUTO 24004KT 9999 SCT013 BKN021 OVC046 18/17 Q1025 TEMPO 4000 RA OVC013
21:00
V
18 °C 10 km+ 4.600 ft 250° 250° 6 kt METAR LFBE 011900Z AUTO 25006KT 9999 SCT024 BKN046 OVC054 18/17 Q1025 TEMPO 4000 RA OVC013
20:30
M
18 °C 10 km+ 1.100 ft 260° 260° 9 kt METAR LFBE 011830Z AUTO 26009KT 9999 OVC011 18/17 Q1025 TEMPO 4000 RA
20:00
M
18 °C 10 km+ 1.000 ft 250° 250° 10 kt METAR LFBE 011800Z AUTO 25010KT 9999 BKN010 BKN022 OVC028 18/17 Q1025 TEMPO 4000 RA
19:30
M
19 °C 10 km+ 1.000 ft 240° 240° 10 kt METAR LFBE 011730Z AUTO 24010KT 9999 BKN010 OVC015 19/17 Q1024 TEMPO 4000 RA
19:00
M
19 °C 10 km+ 1.100 ft 240° 240° 11 kt METAR LFBE 011700Z AUTO 24011KT 9999 OVC011 19/17 Q1024 TEMPO 2000 DZRA OVC008
18:30
M
19 °C 10 km+ 1.400 ft 240° 240° 14 kt METAR LFBE 011630Z AUTO 24014KT 210V270 9999 BKN014 OVC019 19/17 Q1023 TEMPO 2000 DZRA OVC008
18:00
M
20 °C 10 km+ 1.800 ft 250° 250° 12 kt METAR LFBE 011600Z AUTO 25012KT 9999 OVC018 20/16 Q1023 TEMPO 2000 DZRA OVC008
17:30
M
20 °C 10 km+ 1.900 ft 260° 260° 17 kt METAR LFBE 011530Z AUTO 26017KT 9999 OVC019 20/16 Q1023 TEMPO 2000 DZRA OVC008
17:00
M
20 °C 10 km+ 1.800 ft 250° 250° 14 kt METAR LFBE 011500Z AUTO 25014KT 210V280 9999 BKN018 OVC027 20/17 Q1023 TEMPO 2000 DZRA OVC008
16:30
M
20 °C 10 km+ 2.000 ft 250° 250° 12 kt METAR LFBE 011430Z AUTO 25012KT 9999 SCT014 BKN020 OVC025 20/17 Q1023 TEMPO 2000 DZRA OVC008
16:00
M
20 °C 10 km+ 1.400 ft 260° 260° 12 kt METAR LFBE 011400Z AUTO 26012KT 9999 BKN014 BKN019 OVC032 20/17 Q1023 TEMPO 2000 DZRA OVC008
15:30
M
20 °C 10 km+ 1.600 ft 260° 260° 15 kt METAR LFBE 011330Z AUTO 26015KT 9999 BKN016 BKN023 OVC037 20/17 Q1022 TEMPO 2000 DZRA OVC008
15:00
M
20 °C 10 km+ 1.500 ft 250° 250° 14 kt METAR LFBE 011300Z AUTO 25014KT 9999 BKN015 BKN021 OVC036 20/17 Q1022 TEMPO 2000 DZRA OVC008
14:30
M
20 °C 10 km+ 1.400 ft 250° 250° 12 kt METAR LFBE 011230Z AUTO 25012KT 230V290 9999 OVC014 20/17 Q1022 TEMPO 2000 DZRA OVC008
14:00
M
19 °C 10 km+ 1.200 ft 240° 240° 13 kt METAR LFBE 011200Z AUTO 24013KT 210V270 9999 OVC012 19/17 Q1022 TEMPO 2000 DZRA OVC008
13:30
M
19 °C 10 km+ 1.700 ft 240° 240° 16 kt METAR LFBE 011130Z AUTO 24016KT 210V270 9999 BKN017 OVC022 19/16 Q1022 TEMPO 2000 DZRA OVC008
13:00
M
19 °C 10 km+ 1.500 ft 240° 240° 11 kt METAR LFBE 011100Z AUTO 24011KT 9999 BKN015 BKN020 OVC026 19/16 Q1022 TEMPO 2000 DZRA OVC008
12:30
M
18 °C 10 km+ 1.700 ft 230° 230° 14 kt METAR LFBE 011030Z AUTO 23014KT 9999 OVC017 18/16 Q1021 TEMPO 2000 DZRA OVC008
12:00
M
18 °C 10 km+ 1.600 ft 230° 230° 12 kt METAR LFBE 011000Z AUTO 23012KT 9999 BKN016 OVC023 18/15 Q1021 TEMPO 2000 DZRA OVC008
11:30
M
17 °C 10 km+ 1.500 ft 230° 230° 11 kt METAR LFBE 010930Z AUTO 23011KT 9999 BKN015 OVC022 17/15 Q1021 TEMPO 2000 DZRA OVC008
11:00
M
17 °C 10 km+ 1.600 ft 220° 220° 12 kt METAR LFBE 010900Z AUTO 22012KT 200V260 9999 BKN016 OVC021 17/15 Q1021 TEMPO 2000 DZRA OVC008
10:30
M
16 °C 10 km+ 1.400 ft 220° 220° 9 kt METAR LFBE 010830Z AUTO 22009KT 200V270 9999 BKN014 OVC021 16/15 Q1020 TEMPO 2000 DZRA OVC008
10:00
M
15 °C 10 km+ 1.600 ft 230° 230° 8 kt METAR LFBE 010800Z AUTO 23008KT 190V280 9999 BKN016 OVC022 15/14 Q1020 TEMPO 2000 DZRA OVC008
09:30
M
15 °C 10 km+ 2.300 ft 220° 220° 6 kt METAR LFBE 010730Z AUTO 22006KT 9999 SCT014 OVC023 15/14 Q1020 TEMPO 2000 DZRA OVC008
09:00
M
15 °C 10 km+ 2.500 ft 210° 210° 6 kt METAR LFBE 010700Z AUTO 21006KT 180V250 9999 FEW018 OVC025 15/13 Q1020 TEMPO 2000 DZRA OVC008
08:30
M
15 °C 10 km+ 2.900 ft 200° 200° 7 kt METAR LFBE 010630Z AUTO 20007KT 9999 BKN029 OVC037 15/13 Q1019 TEMPO 2000 DZRA OVC008
08:00
V
14 °C 10 km+ 3.300 ft 200° 200° 9 kt METAR LFBE 010600Z AUTO 20009KT 170V240 9999 BKN033 OVC043 14/13 Q1019 TEMPO 4000 RA OVC013
07:30
V
14 °C 10 km+ 3.200 ft 200° 200° 10 kt METAR LFBE 010530Z AUTO 20010KT 9999 SCT026 BKN032 OVC043 14/13 Q1019 TEMPO 4000 RA
07:00
M
14 °C 10 km+ 2.800 ft 200° 200° 8 kt METAR LFBE 010500Z AUTO 20008KT 150V240 9999 BKN028 OVC034 14/13 Q1019 TEMPO 4000 RA
06:30
V
14 °C 10 km+ 4.100 ft 190° 190° 7 kt METAR LFBE 010430Z AUTO 19007KT 150V220 9999 OVC041 14/12 Q1019 TEMPO 4000 RA
06:00
V
14 °C 10 km+ 4.800 ft 200° 200° 9 kt METAR LFBE 010400Z AUTO 20009KT 170V230 9999 FEW026 BKN048 OVC072 14/12 Q1019 TEMPO 4000 RA
05:30
V
13 °C 10 km+ 4.000 ft Var Var 3 kt METAR LFBE 010330Z AUTO VRB03KT 9999 BKN040 BKN052 OVC076 13/12 Q1018 TEMPO 4000 RA
05:00
V
13 °C 10 km+ 4.400 ft Var Var 2 kt METAR LFBE 010300Z AUTO VRB02KT 9999 BKN044 BKN050 BKN110 13/11 Q1018 TEMPO 4000 RA
04:30
V
13 °C 10 km+ 9.800 ft 140° 140° 4 kt METAR LFBE 010230Z AUTO 14004KT 100V190 9999 FEW028 BKN098 OVC110 13/11 Q1018 TEMPO 4000 RA
04:00
V
13 °C 10 km+ 11.000 ft 180° 180° 6 kt METAR LFBE 010200Z AUTO 18006KT 150V210 9999 SCT031 BKN110 OVC200 13/11 Q1019 TEMPO 4000 RA
03:30
V
13 °C 10 km+ 3.600 ft Var Var 2 kt METAR LFBE 010130Z AUTO VRB02KT 9999 -RA BKN036 BKN043 BKN056 13/11 Q1019 TEMPO 4000 RA
03:00
V
13 °C 10 km+ 11.000 ft 300° 300° 3 kt METAR LFBE 010100Z AUTO 30003KT 240V330 9999 -RA FEW041/// SCT058/// OVC110/// //////TCU 13/10 Q1019 BECMG SCT020 OVC040
02:30
V
12 °C 10 km+ 4.500 ft 240° 240° 3 kt METAR LFBE 010030Z AUTO 24003KT 9999 BKN045 BKN100 12/10 Q1018 NOSIG
02:00
V
11 °C 10 km+ 4.600 ft Var Var 2 kt METAR LFBE 010000Z AUTO VRB02KT 9999 BKN046 BKN052 OVC140 11/10 Q1019
01:30
V
10 °C 10 km+ 9.200 ft Var Var 2 kt METAR LFBE 302330Z AUTO VRB02KT 9999 FEW047 BKN092 BKN130 10/10 Q1019
01:00
V
10 °C 10 km+ - Var Var 2 kt METAR LFBE 302300Z AUTO VRB02KT CAVOK 10/09 Q1019
00:30
V
10 °C 10 km+ - 050° 050° 3 kt METAR LFBE 302230Z AUTO 05003KT CAVOK 10/09 Q1019
00:00
V
10 °C 10 km+ - 120° 120° 1 kt METAR LFBE 302200Z AUTO 12001KT CAVOK 10/09 Q1019

30 września 2022

Czas Kod Pogoda Temp. Widoczność Sufit Wiatr METAR/SPECI
23:30
V
10 °C 10 km+ - 140° 140° 3 kt METAR LFBE 302130Z AUTO 14003KT CAVOK 10/09 Q1018
23:00
V
10 °C 10 km+ - Var 000° 0 kt METAR LFBE 302100Z AUTO 00000KT CAVOK 10/08 Q1018
22:30
V
12 °C 10 km+ - 240° 240° 3 kt METAR LFBE 302030Z AUTO 24003KT CAVOK 12/08 Q1018 NOSIG
22:00
V
12 °C 10 km+ - 260° 260° 4 kt METAR LFBE 302000Z AUTO 26004KT CAVOK 12/08 Q1018 NOSIG
21:30
V
11 °C 10 km+ - 270° 270° 4 kt METAR LFBE 301930Z AUTO 27004KT CAVOK 11/07 Q1018 NOSIG
21:00
V
11 °C 10 km+ - Var 000° 0 kt METAR LFBE 301900Z AUTO 00000KT CAVOK 11/08 Q1017 NOSIG
20:30
V
13 °C 10 km+ - 220° 220° 2 kt METAR LFBE 301830Z AUTO 22002KT CAVOK 13/08 Q1017 NOSIG
20:00
V
14 °C 10 km+ - 240° 240° 5 kt METAR LFBE 301800Z AUTO 24005KT CAVOK 14/07 Q1017 NOSIG
19:30
V
16 °C 10 km+ - 230° 230° 4 kt METAR LFBE 301730Z AUTO 23004KT CAVOK 16/08 Q1016 NOSIG
19:00
V
17 °C 10 km+ - 270° 270° 8 kt METAR LFBE 301700Z AUTO 27008KT CAVOK 17/08 Q1016 NOSIG
18:30
V
19 °C 10 km+ - 280° 280° 10 kt METAR LFBE 301630Z AUTO 28010KT CAVOK 19/07 Q1016 NOSIG
18:00
V
19 °C 10 km+ - 280° 280° 8 kt METAR LFBE 301600Z AUTO 28008KT 230V310 CAVOK 19/07 Q1015 NOSIG
17:30
V
19 °C 10 km+ - 260° 260° 9 kt METAR LFBE 301530Z AUTO 26009KT 230V290 CAVOK 19/07 Q1015 NOSIG
17:00
V
19 °C 10 km+ - 270° 270° 9 kt METAR LFBE 301500Z AUTO 27009KT CAVOK 19/07 Q1015 NOSIG
16:30
V
20 °C 10 km+ - 260° 260° 9 kt METAR LFBE 301430Z AUTO 26009KT CAVOK 20/08 Q1015 NOSIG
16:00
V
19 °C 10 km+ - 280° 280° 5 kt METAR LFBE 301400Z AUTO 28005KT 230V340 CAVOK 19/07 Q1015 NOSIG
15:30
V
19 °C 10 km+ - 280° 280° 10 kt METAR LFBE 301330Z AUTO 28010KT 9999 FEW049 SCT064 19/08 Q1015 NOSIG
15:00
V
19 °C 10 km+ 5.800 ft 270° 270° 6 kt METAR LFBE 301300Z AUTO 27006KT 240V310 9999 SCT047 BKN058 19/10 Q1015 NOSIG
14:30
V
17 °C 10 km+ - 290° 290° 7 kt METAR LFBE 301230Z AUTO 29007KT 260V330 9999 FEW040 SCT054 17/08 Q1015 NOSIG
14:00
V
18 °C 10 km+ - 300° 300° 7 kt METAR LFBE 301200Z AUTO 30007KT 230V010 9999 SCT040 18/09 Q1015 NOSIG
13:30
V
18 °C 10 km+ 4.200 ft 290° 290° 6 kt METAR LFBE 301130Z AUTO 29006KT 210V340 9999 SCT036 BKN042 18/09 Q1015 NOSIG
13:00
V
17 °C 10 km+ - Var Var 4 kt METAR LFBE 301100Z AUTO VRB04KT 9999 SCT034 17/09 Q1015 NOSIG
12:30
V
17 °C 10 km+ 3.100 ft Var Var 4 kt METAR LFBE 301030Z AUTO VRB04KT 9999 BKN031 BKN037 17/09 Q1014 NOSIG
12:00
V
16 °C 10 km+ - Var Var 3 kt METAR LFBE 301000Z AUTO VRB03KT 9999 FEW025 16/11 Q1014 NOSIG
11:30
V
15 °C 10 km+ - Var Var 3 kt METAR LFBE 300930Z AUTO VRB03KT 9999 FEW020 15/10 Q1014 NOSIG
11:00
V
14 °C 10 km+ - Var Var 2 kt METAR LFBE 300900Z AUTO VRB02KT CAVOK 14/11 Q1014 NOSIG
Starsze dane

My i osoby trzecie śledzimy twoje zachowanie w internecie na naszej stronie za pomocą plików cookie. Jeśli kontynuujesz, zakładamy, że zgadzasz się z naszą polityką plików cookie. Dowiedz się więcej